sensor_id;sensor_type;location;lat;lon;timestamp;P1;durP1;ratioP1;P2;durP2;ratioP2
7154;SDS011;3619;53.784;10.440;2023-04-24T00:00:56;2.57;;;2.47;;
7154;SDS011;3619;53.784;10.440;2023-04-24T00:03:25;2.57;;;2.47;;
7154;SDS011;3619;53.784;10.440;2023-04-24T00:05:53;2.70;;;2.60;;
7154;SDS011;3619;53.784;10.440;2023-04-24T00:08:20;3.07;;;2.97;;
7154;SDS011;3619;53.784;10.440;2023-04-24T00:10:47;3.73;;;3.63;;
7154;SDS011;3619;53.784;10.440;2023-04-24T00:13:14;3.23;;;3.13;;
7154;SDS011;3619;53.784;10.440;2023-04-24T00:15:41;3.10;;;3.00;;
7154;SDS011;3619;53.784;10.440;2023-04-24T00:18:08;2.70;;;2.60;;
7154;SDS011;3619;53.784;10.440;2023-04-24T00:20:36;3.03;;;2.93;;
7154;SDS011;3619;53.784;10.440;2023-04-24T00:23:03;3.20;;;3.10;;
7154;SDS011;3619;53.784;10.440;2023-04-24T00:25:30;2.80;;;2.70;;
7154;SDS011;3619;53.784;10.440;2023-04-24T00:27:57;3.27;;;3.17;;
7154;SDS011;3619;53.784;10.440;2023-04-24T00:30:23;3.03;;;2.93;;
7154;SDS011;3619;53.784;10.440;2023-04-24T00:32:50;3.13;;;3.03;;
7154;SDS011;3619;53.784;10.440;2023-04-24T00:35:17;3.00;;;2.90;;
7154;SDS011;3619;53.784;10.440;2023-04-24T00:37:46;3.50;;;3.40;;
7154;SDS011;3619;53.784;10.440;2023-04-24T00:40:13;3.50;;;3.40;;
7154;SDS011;3619;53.784;10.440;2023-04-24T00:42:40;3.13;;;3.03;;
7154;SDS011;3619;53.784;10.440;2023-04-24T00:45:07;3.00;;;2.90;;
7154;SDS011;3619;53.784;10.440;2023-04-24T00:47:34;2.90;;;2.80;;
7154;SDS011;3619;53.784;10.440;2023-04-24T00:50:01;2.90;;;2.80;;
7154;SDS011;3619;53.784;10.440;2023-04-24T00:52:28;3.20;;;3.10;;
7154;SDS011;3619;53.784;10.440;2023-04-24T00:54:57;3.70;;;3.60;;
7154;SDS011;3619;53.784;10.440;2023-04-24T00:57:24;3.43;;;3.33;;
7154;SDS011;3619;53.784;10.440;2023-04-24T00:59:52;3.13;;;3.03;;
7154;SDS011;3619;53.784;10.440;2023-04-24T01:02:19;3.43;;;3.33;;
7154;SDS011;3619;53.784;10.440;2023-04-24T01:04:49;3.23;;;3.13;;
7154;SDS011;3619;53.784;10.440;2023-04-24T01:07:17;3.53;;;3.43;;
7154;SDS011;3619;53.784;10.440;2023-04-24T01:09:46;3.00;;;2.90;;
7154;SDS011;3619;53.784;10.440;2023-04-24T01:12:17;3.47;;;3.37;;
7154;SDS011;3619;53.784;10.440;2023-04-24T01:14:45;3.40;;;3.30;;
7154;SDS011;3619;53.784;10.440;2023-04-24T01:17:12;3.60;;;3.50;;
7154;SDS011;3619;53.784;10.440;2023-04-24T01:19:39;3.67;;;3.57;;
7154;SDS011;3619;53.784;10.440;2023-04-24T01:22:11;3.60;;;3.50;;
7154;SDS011;3619;53.784;10.440;2023-04-24T01:24:38;4.03;;;3.93;;
7154;SDS011;3619;53.784;10.440;2023-04-24T01:27:06;3.43;;;3.33;;
7154;SDS011;3619;53.784;10.440;2023-04-24T01:29:33;3.87;;;3.77;;
7154;SDS011;3619;53.784;10.440;2023-04-24T01:32:01;4.20;;;4.10;;
7154;SDS011;3619;53.784;10.440;2023-04-24T01:34:28;3.63;;;3.53;;
7154;SDS011;3619;53.784;10.440;2023-04-24T01:36:55;3.80;;;3.70;;
7154;SDS011;3619;53.784;10.440;2023-04-24T01:39:24;3.63;;;3.53;;
7154;SDS011;3619;53.784;10.440;2023-04-24T01:41:51;3.63;;;3.53;;
7154;SDS011;3619;53.784;10.440;2023-04-24T01:44:18;4.00;;;3.90;;
7154;SDS011;3619;53.784;10.440;2023-04-24T01:46:45;3.60;;;3.50;;
7154;SDS011;3619;53.784;10.440;2023-04-24T01:49:12;3.93;;;3.83;;
7154;SDS011;3619;53.784;10.440;2023-04-24T01:51:39;3.97;;;3.87;;
7154;SDS011;3619;53.784;10.440;2023-04-24T01:54:06;3.97;;;3.87;;
7154;SDS011;3619;53.784;10.440;2023-04-24T01:56:34;3.87;;;3.77;;
7154;SDS011;3619;53.784;10.440;2023-04-24T01:59:02;3.53;;;3.43;;
7154;SDS011;3619;53.784;10.440;2023-04-24T02:01:32;4.50;;;4.33;;
7154;SDS011;3619;53.784;10.440;2023-04-24T02:04:01;4.03;;;3.93;;
7154;SDS011;3619;53.784;10.440;2023-04-24T02:06:28;3.73;;;3.63;;
7154;SDS011;3619;53.784;10.440;2023-04-24T02:08:56;3.20;;;3.10;;
7154;SDS011;3619;53.784;10.440;2023-04-24T02:11:23;4.07;;;3.97;;
7154;SDS011;3619;53.784;10.440;2023-04-24T02:13:51;3.87;;;3.77;;
7154;SDS011;3619;53.784;10.440;2023-04-24T02:16:18;3.87;;;3.77;;
7154;SDS011;3619;53.784;10.440;2023-04-24T02:18:45;3.90;;;3.80;;
7154;SDS011;3619;53.784;10.440;2023-04-24T02:21:12;3.93;;;3.83;;
7154;SDS011;3619;53.784;10.440;2023-04-24T02:23:38;4.13;;;4.03;;
7154;SDS011;3619;53.784;10.440;2023-04-24T02:26:06;3.50;;;3.40;;
7154;SDS011;3619;53.784;10.440;2023-04-24T02:28:33;3.73;;;3.63;;
7154;SDS011;3619;53.784;10.440;2023-04-24T02:31:01;3.93;;;3.83;;
7154;SDS011;3619;53.784;10.440;2023-04-24T02:33:27;4.23;;;4.13;;
7154;SDS011;3619;53.784;10.440;2023-04-24T02:35:54;3.90;;;3.80;;
7154;SDS011;3619;53.784;10.440;2023-04-24T02:38:21;4.40;;;4.27;;
7154;SDS011;3619;53.784;10.440;2023-04-24T02:40:48;3.30;;;3.20;;
7154;SDS011;3619;53.784;10.440;2023-04-24T02:43:15;3.83;;;3.73;;
7154;SDS011;3619;53.784;10.440;2023-04-24T02:45:41;4.60;;;4.40;;
7154;SDS011;3619;53.784;10.440;2023-04-24T02:48:10;3.67;;;3.57;;
7154;SDS011;3619;53.784;10.440;2023-04-24T02:50:36;4.03;;;3.93;;
7154;SDS011;3619;53.784;10.440;2023-04-24T02:53:03;4.00;;;3.90;;
7154;SDS011;3619;53.784;10.440;2023-04-24T02:55:30;4.20;;;4.10;;
7154;SDS011;3619;53.784;10.440;2023-04-24T02:57:57;3.87;;;3.77;;
7154;SDS011;3619;53.784;10.440;2023-04-24T03:00:24;3.70;;;3.60;;
7154;SDS011;3619;53.784;10.440;2023-04-24T03:02:50;4.07;;;3.97;;
7154;SDS011;3619;53.784;10.440;2023-04-24T03:05:19;4.10;;;4.00;;
7154;SDS011;3619;53.784;10.440;2023-04-24T03:07:46;3.73;;;3.63;;
7154;SDS011;3619;53.784;10.440;2023-04-24T03:10:13;3.43;;;3.33;;
7154;SDS011;3619;53.784;10.440;2023-04-24T03:12:40;3.93;;;3.83;;
7154;SDS011;3619;53.784;10.440;2023-04-24T03:15:10;4.20;;;4.10;;
7154;SDS011;3619;53.784;10.440;2023-04-24T03:17:37;4.00;;;3.90;;
7154;SDS011;3619;53.784;10.440;2023-04-24T03:20:04;3.50;;;3.40;;
7154;SDS011;3619;53.784;10.440;2023-04-24T03:22:34;3.63;;;3.53;;
7154;SDS011;3619;53.784;10.440;2023-04-24T03:25:01;3.33;;;3.23;;
7154;SDS011;3619;53.784;10.440;2023-04-24T03:27:28;3.50;;;3.40;;
7154;SDS011;3619;53.784;10.440;2023-04-24T03:29:55;3.60;;;3.50;;
7154;SDS011;3619;53.784;10.440;2023-04-24T03:32:22;3.00;;;2.90;;
7154;SDS011;3619;53.784;10.440;2023-04-24T03:34:49;3.37;;;3.27;;
7154;SDS011;3619;53.784;10.440;2023-04-24T03:37:16;3.57;;;3.47;;
7154;SDS011;3619;53.784;10.440;2023-04-24T03:39:44;3.57;;;3.47;;
7154;SDS011;3619;53.784;10.440;2023-04-24T03:42:11;3.43;;;3.33;;
7154;SDS011;3619;53.784;10.440;2023-04-24T03:44:38;3.50;;;3.40;;
7154;SDS011;3619;53.784;10.440;2023-04-24T03:47:04;3.70;;;3.60;;
7154;SDS011;3619;53.784;10.440;2023-04-24T03:49:31;3.23;;;3.13;;
7154;SDS011;3619;53.784;10.440;2023-04-24T03:51:58;3.00;;;2.90;;
7154;SDS011;3619;53.784;10.440;2023-04-24T03:54:24;3.30;;;3.20;;
7154;SDS011;3619;53.784;10.440;2023-04-24T03:56:53;4.23;;;4.13;;
7154;SDS011;3619;53.784;10.440;2023-04-24T03:59:19;3.43;;;3.33;;
7154;SDS011;3619;53.784;10.440;2023-04-24T04:01:46;4.07;;;3.97;;
7154;SDS011;3619;53.784;10.440;2023-04-24T04:04:13;4.00;;;3.90;;
7154;SDS011;3619;53.784;10.440;2023-04-24T04:06:40;3.63;;;3.53;;
7154;SDS011;3619;53.784;10.440;2023-04-24T04:09:09;3.60;;;3.50;;
7154;SDS011;3619;53.784;10.440;2023-04-24T04:11:36;3.53;;;3.43;;
7154;SDS011;3619;53.784;10.440;2023-04-24T04:14:05;3.53;;;3.43;;
7154;SDS011;3619;53.784;10.440;2023-04-24T04:16:31;3.63;;;3.53;;
7154;SDS011;3619;53.784;10.440;2023-04-24T04:18:58;3.97;;;3.87;;
7154;SDS011;3619;53.784;10.440;2023-04-24T04:21:25;3.67;;;3.57;;
7154;SDS011;3619;53.784;10.440;2023-04-24T04:23:52;3.33;;;3.23;;
7154;SDS011;3619;53.784;10.440;2023-04-24T04:26:19;3.80;;;3.70;;
7154;SDS011;3619;53.784;10.440;2023-04-24T04:28:46;3.93;;;3.83;;
7154;SDS011;3619;53.784;10.440;2023-04-24T04:31:15;4.13;;;4.03;;
7154;SDS011;3619;53.784;10.440;2023-04-24T04:33:42;4.13;;;4.03;;
7154;SDS011;3619;53.784;10.440;2023-04-24T04:36:08;5.00;;;4.80;;
7154;SDS011;3619;53.784;10.440;2023-04-24T04:38:35;4.63;;;4.43;;
7154;SDS011;3619;53.784;10.440;2023-04-24T04:41:02;4.30;;;4.20;;
7154;SDS011;3619;53.784;10.440;2023-04-24T04:43:30;3.93;;;3.83;;
7154;SDS011;3619;53.784;10.440;2023-04-24T04:45:57;3.47;;;3.37;;
7154;SDS011;3619;53.784;10.440;2023-04-24T04:48:27;3.97;;;3.87;;
7154;SDS011;3619;53.784;10.440;2023-04-24T04:50:53;3.80;;;3.70;;
7154;SDS011;3619;53.784;10.440;2023-04-24T04:53:20;3.83;;;3.73;;
7154;SDS011;3619;53.784;10.440;2023-04-24T04:55:47;4.30;;;4.20;;
7154;SDS011;3619;53.784;10.440;2023-04-24T04:58:14;3.90;;;3.80;;
7154;SDS011;3619;53.784;10.440;2023-04-24T05:00:41;3.43;;;3.33;;
7154;SDS011;3619;53.784;10.440;2023-04-24T05:03:07;3.90;;;3.80;;
7154;SDS011;3619;53.784;10.440;2023-04-24T05:05:36;3.20;;;3.10;;
7154;SDS011;3619;53.784;10.440;2023-04-24T05:08:05;3.40;;;3.30;;
7154;SDS011;3619;53.784;10.440;2023-04-24T05:10:33;3.10;;;3.00;;
7154;SDS011;3619;53.784;10.440;2023-04-24T05:13:01;2.90;;;2.80;;
7154;SDS011;3619;53.784;10.440;2023-04-24T05:15:28;3.23;;;3.13;;
7154;SDS011;3619;53.784;10.440;2023-04-24T05:17:55;2.83;;;2.73;;
7154;SDS011;3619;53.784;10.440;2023-04-24T05:20:22;2.97;;;2.87;;
7154;SDS011;3619;53.784;10.440;2023-04-24T05:22:50;2.77;;;2.67;;
7154;SDS011;3619;53.784;10.440;2023-04-24T05:25:17;3.17;;;3.07;;
7154;SDS011;3619;53.784;10.440;2023-04-24T05:27:44;3.10;;;3.00;;
7154;SDS011;3619;53.784;10.440;2023-04-24T05:30:11;2.90;;;2.80;;
7154;SDS011;3619;53.784;10.440;2023-04-24T05:32:39;3.03;;;2.93;;
7154;SDS011;3619;53.784;10.440;2023-04-24T05:35:06;2.93;;;2.83;;
7154;SDS011;3619;53.784;10.440;2023-04-24T05:37:33;3.27;;;3.17;;
7154;SDS011;3619;53.784;10.440;2023-04-24T05:40:01;2.80;;;2.70;;
7154;SDS011;3619;53.784;10.440;2023-04-24T05:42:30;2.73;;;2.63;;
7154;SDS011;3619;53.784;10.440;2023-04-24T05:44:57;2.67;;;2.57;;
7154;SDS011;3619;53.784;10.440;2023-04-24T05:47:23;3.20;;;3.10;;
7154;SDS011;3619;53.784;10.440;2023-04-24T05:49:51;2.40;;;2.30;;
7154;SDS011;3619;53.784;10.440;2023-04-24T05:52:18;2.73;;;2.63;;
7154;SDS011;3619;53.784;10.440;2023-04-24T05:54:45;2.40;;;2.30;;
7154;SDS011;3619;53.784;10.440;2023-04-24T05:57:14;2.60;;;2.50;;
7154;SDS011;3619;53.784;10.440;2023-04-24T05:59:40;2.50;;;2.40;;
7154;SDS011;3619;53.784;10.440;2023-04-24T06:02:07;2.30;;;2.20;;
7154;SDS011;3619;53.784;10.440;2023-04-24T06:04:34;2.53;;;2.43;;
7154;SDS011;3619;53.784;10.440;2023-04-24T06:07:02;2.33;;;2.23;;
7154;SDS011;3619;53.784;10.440;2023-04-24T06:09:28;2.47;;;2.37;;
7154;SDS011;3619;53.784;10.440;2023-04-24T06:11:55;2.40;;;2.30;;
7154;SDS011;3619;53.784;10.440;2023-04-24T06:14:24;2.37;;;2.27;;
7154;SDS011;3619;53.784;10.440;2023-04-24T06:16:52;1.80;;;1.80;;
7154;SDS011;3619;53.784;10.440;2023-04-24T06:19:18;2.50;;;2.40;;
7154;SDS011;3619;53.784;10.440;2023-04-24T06:21:46;2.50;;;2.40;;
7154;SDS011;3619;53.784;10.440;2023-04-24T06:24:13;1.70;;;1.70;;
7154;SDS011;3619;53.784;10.440;2023-04-24T06:26:41;1.80;;;1.80;;
7154;SDS011;3619;53.784;10.440;2023-04-24T06:29:08;1.73;;;1.73;;
7154;SDS011;3619;53.784;10.440;2023-04-24T06:31:37;2.20;;;2.10;;
7154;SDS011;3619;53.784;10.440;2023-04-24T06:34:03;1.70;;;1.70;;
7154;SDS011;3619;53.784;10.440;2023-04-24T06:36:30;1.80;;;1.80;;
7154;SDS011;3619;53.784;10.440;2023-04-24T06:38:59;1.70;;;1.70;;
7154;SDS011;3619;53.784;10.440;2023-04-24T06:41:26;1.77;;;1.77;;
7154;SDS011;3619;53.784;10.440;2023-04-24T06:43:53;1.60;;;1.60;;
7154;SDS011;3619;53.784;10.440;2023-04-24T06:46:20;1.50;;;1.50;;
7154;SDS011;3619;53.784;10.440;2023-04-24T06:48:50;1.83;;;1.80;;
7154;SDS011;3619;53.784;10.440;2023-04-24T06:51:17;1.80;;;1.80;;
7154;SDS011;3619;53.784;10.440;2023-04-24T06:53:44;2.00;;;1.90;;
7154;SDS011;3619;53.784;10.440;2023-04-24T06:56:10;1.80;;;1.80;;
7154;SDS011;3619;53.784;10.440;2023-04-24T06:58:37;1.63;;;1.63;;
7154;SDS011;3619;53.784;10.440;2023-04-24T07:01:04;2.00;;;1.90;;
7154;SDS011;3619;53.784;10.440;2023-04-24T07:03:31;1.60;;;1.60;;
7154;SDS011;3619;53.784;10.440;2023-04-24T07:05:59;1.43;;;1.43;;
7154;SDS011;3619;53.784;10.440;2023-04-24T07:08:28;1.50;;;1.50;;
7154;SDS011;3619;53.784;10.440;2023-04-24T07:10:56;1.40;;;1.40;;
7154;SDS011;3619;53.784;10.440;2023-04-24T07:13:23;1.70;;;1.70;;
7154;SDS011;3619;53.784;10.440;2023-04-24T07:15:49;1.70;;;1.70;;
7154;SDS011;3619;53.784;10.440;2023-04-24T07:18:18;2.07;;;1.97;;
7154;SDS011;3619;53.784;10.440;2023-04-24T07:20:46;1.70;;;1.70;;
7154;SDS011;3619;53.784;10.440;2023-04-24T07:23:14;1.60;;;1.60;;
7154;SDS011;3619;53.784;10.440;2023-04-24T07:25:41;1.67;;;1.67;;
7154;SDS011;3619;53.784;10.440;2023-04-24T07:28:09;2.10;;;2.00;;
7154;SDS011;3619;53.784;10.440;2023-04-24T07:30:36;1.70;;;1.70;;
7154;SDS011;3619;53.784;10.440;2023-04-24T07:33:03;1.60;;;1.60;;
7154;SDS011;3619;53.784;10.440;2023-04-24T07:35:33;1.30;;;1.30;;
7154;SDS011;3619;53.784;10.440;2023-04-24T07:38:00;1.50;;;1.50;;
7154;SDS011;3619;53.784;10.440;2023-04-24T07:40:28;1.53;;;1.53;;
7154;SDS011;3619;53.784;10.440;2023-04-24T07:42:55;1.60;;;1.60;;
7154;SDS011;3619;53.784;10.440;2023-04-24T07:45:22;1.80;;;1.80;;
7154;SDS011;3619;53.784;10.440;2023-04-24T07:47:51;2.23;;;2.13;;
7154;SDS011;3619;53.784;10.440;2023-04-24T07:50:18;2.00;;;1.90;;
7154;SDS011;3619;53.784;10.440;2023-04-24T07:52:44;2.10;;;2.00;;
7154;SDS011;3619;53.784;10.440;2023-04-24T07:55:11;1.70;;;1.70;;
7154;SDS011;3619;53.784;10.440;2023-04-24T07:57:39;14.43;;;13.37;;
7154;SDS011;3619;53.784;10.440;2023-04-24T08:00:06;1.40;;;1.40;;
7154;SDS011;3619;53.784;10.440;2023-04-24T08:02:34;1.40;;;1.40;;
7154;SDS011;3619;53.784;10.440;2023-04-24T08:05:01;1.40;;;1.40;;
7154;SDS011;3619;53.784;10.440;2023-04-24T08:07:29;1.50;;;1.50;;
7154;SDS011;3619;53.784;10.440;2023-04-24T08:09:55;1.60;;;1.60;;
7154;SDS011;3619;53.784;10.440;2023-04-24T08:12:22;1.30;;;1.30;;
7154;SDS011;3619;53.784;10.440;2023-04-24T08:14:50;1.47;;;1.47;;
7154;SDS011;3619;53.784;10.440;2023-04-24T08:17:17;1.50;;;1.50;;
7154;SDS011;3619;53.784;10.440;2023-04-24T08:19:44;1.27;;;1.27;;
7154;SDS011;3619;53.784;10.440;2023-04-24T08:22:13;1.43;;;1.43;;
7154;SDS011;3619;53.784;10.440;2023-04-24T08:24:40;1.63;;;1.63;;
7154;SDS011;3619;53.784;10.440;2023-04-24T08:27:08;1.60;;;1.60;;
7154;SDS011;3619;53.784;10.440;2023-04-24T08:29:35;1.60;;;1.60;;
7154;SDS011;3619;53.784;10.440;2023-04-24T08:32:04;2.00;;;1.90;;
7154;SDS011;3619;53.784;10.440;2023-04-24T08:34:32;2.00;;;1.90;;
7154;SDS011;3619;53.784;10.440;2023-04-24T08:36:58;1.97;;;1.90;;
7154;SDS011;3619;53.784;10.440;2023-04-24T08:39:26;1.30;;;1.30;;
7154;SDS011;3619;53.784;10.440;2023-04-24T08:41:53;1.70;;;1.70;;
7154;SDS011;3619;53.784;10.440;2023-04-24T08:44:20;1.37;;;1.37;;
7154;SDS011;3619;53.784;10.440;2023-04-24T08:46:47;1.60;;;1.60;;
7154;SDS011;3619;53.784;10.440;2023-04-24T08:49:17;1.43;;;1.43;;
7154;SDS011;3619;53.784;10.440;2023-04-24T08:51:45;1.70;;;1.70;;
7154;SDS011;3619;53.784;10.440;2023-04-24T08:54:13;1.77;;;1.77;;
7154;SDS011;3619;53.784;10.440;2023-04-24T08:56:40;2.03;;;1.93;;
7154;SDS011;3619;53.784;10.440;2023-04-24T08:59:11;1.70;;;1.70;;
7154;SDS011;3619;53.784;10.440;2023-04-24T09:01:38;1.40;;;1.40;;
7154;SDS011;3619;53.784;10.440;2023-04-24T09:04:07;2.00;;;1.90;;
7154;SDS011;3619;53.784;10.440;2023-04-24T09:06:37;1.60;;;1.60;;
7154;SDS011;3619;53.784;10.440;2023-04-24T09:09:04;1.63;;;1.63;;
7154;SDS011;3619;53.784;10.440;2023-04-24T09:11:31;1.73;;;1.73;;
7154;SDS011;3619;53.784;10.440;2023-04-24T09:13:59;1.73;;;1.73;;
7154;SDS011;3619;53.784;10.440;2023-04-24T09:16:26;1.70;;;1.70;;
7154;SDS011;3619;53.784;10.440;2023-04-24T09:18:53;1.60;;;1.60;;
7154;SDS011;3619;53.784;10.440;2023-04-24T09:21:21;1.60;;;1.60;;
7154;SDS011;3619;53.784;10.440;2023-04-24T09:23:58;1.63;;;1.63;;
7154;SDS011;3619;53.784;10.440;2023-04-24T09:26:25;1.63;;;1.63;;
7154;SDS011;3619;53.784;10.440;2023-04-24T09:28:56;1.70;;;1.70;;
7154;SDS011;3619;53.784;10.440;2023-04-24T09:31:23;1.47;;;1.47;;
7154;SDS011;3619;53.784;10.440;2023-04-24T09:33:56;1.80;;;1.80;;
7154;SDS011;3619;53.784;10.440;2023-04-24T09:36:27;1.33;;;1.33;;
7154;SDS011;3619;53.784;10.440;2023-04-24T09:38:59;1.60;;;1.60;;
7154;SDS011;3619;53.784;10.440;2023-04-24T09:41:26;1.70;;;1.70;;
7154;SDS011;3619;53.784;10.440;2023-04-24T09:43:54;1.70;;;1.70;;
7154;SDS011;3619;53.784;10.440;2023-04-24T09:46:36;1.60;;;1.60;;
7154;SDS011;3619;53.784;10.440;2023-04-24T09:49:07;2.00;;;1.90;;
7154;SDS011;3619;53.784;10.440;2023-04-24T09:51:36;1.50;;;1.50;;
7154;SDS011;3619;53.784;10.440;2023-04-24T09:54:10;1.73;;;1.73;;
7154;SDS011;3619;53.784;10.440;2023-04-24T09:56:41;1.50;;;1.50;;
7154;SDS011;3619;53.784;10.440;2023-04-24T09:59:09;1.53;;;1.53;;
7154;SDS011;3619;53.784;10.440;2023-04-24T10:01:36;1.93;;;1.87;;
7154;SDS011;3619;53.784;10.440;2023-04-24T10:04:08;1.60;;;1.60;;
7154;SDS011;3619;53.784;10.440;2023-04-24T10:06:42;1.60;;;1.60;;
7154;SDS011;3619;53.784;10.440;2023-04-24T10:09:12;1.60;;;1.60;;
7154;SDS011;3619;53.784;10.440;2023-04-24T10:11:41;1.80;;;1.80;;
7154;SDS011;3619;53.784;10.440;2023-04-24T10:14:10;1.47;;;1.47;;
7154;SDS011;3619;53.784;10.440;2023-04-24T10:16:39;1.37;;;1.37;;
7154;SDS011;3619;53.784;10.440;2023-04-24T10:19:06;1.70;;;1.70;;
7154;SDS011;3619;53.784;10.440;2023-04-24T10:21:34;1.70;;;1.70;;
7154;SDS011;3619;53.784;10.440;2023-04-24T10:24:02;1.70;;;1.70;;
7154;SDS011;3619;53.784;10.440;2023-04-24T10:26:33;1.67;;;1.67;;
7154;SDS011;3619;53.784;10.440;2023-04-24T10:29:00;1.77;;;1.77;;
7154;SDS011;3619;53.784;10.440;2023-04-24T10:31:29;1.70;;;1.70;;
7154;SDS011;3619;53.784;10.440;2023-04-24T10:33:57;1.40;;;1.40;;
7154;SDS011;3619;53.784;10.440;2023-04-24T10:36:26;1.43;;;1.43;;
7154;SDS011;3619;53.784;10.440;2023-04-24T10:38:54;1.87;;;1.80;;
7154;SDS011;3619;53.784;10.440;2023-04-24T10:41:22;1.53;;;1.53;;
7154;SDS011;3619;53.784;10.440;2023-04-24T10:44:05;1.40;;;1.40;;
7154;SDS011;3619;53.784;10.440;2023-04-24T10:46:32;1.60;;;1.60;;
7154;SDS011;3619;53.784;10.440;2023-04-24T10:48:59;1.40;;;1.40;;
7154;SDS011;3619;53.784;10.440;2023-04-24T10:51:43;1.50;;;1.50;;
7154;SDS011;3619;53.784;10.440;2023-04-24T10:54:22;1.40;;;1.40;;
7154;SDS011;3619;53.784;10.440;2023-04-24T10:56:50;1.40;;;1.40;;
7154;SDS011;3619;53.784;10.440;2023-04-24T10:59:25;1.23;;;1.23;;
7154;SDS011;3619;53.784;10.440;2023-04-24T11:01:52;1.00;;;1.00;;
7154;SDS011;3619;53.784;10.440;2023-04-24T11:04:30;1.10;;;1.10;;
7154;SDS011;3619;53.784;10.440;2023-04-24T11:06:57;1.30;;;1.30;;
7154;SDS011;3619;53.784;10.440;2023-04-24T11:09:26;1.10;;;1.10;;
7154;SDS011;3619;53.784;10.440;2023-04-24T11:12:02;1.30;;;1.30;;
7154;SDS011;3619;53.784;10.440;2023-04-24T11:14:43;1.20;;;1.20;;
7154;SDS011;3619;53.784;10.440;2023-04-24T11:17:29;1.30;;;1.30;;
7154;SDS011;3619;53.784;10.440;2023-04-24T11:20:03;1.20;;;1.20;;
7154;SDS011;3619;53.784;10.440;2023-04-24T11:22:33;1.30;;;1.30;;
7154;SDS011;3619;53.784;10.440;2023-04-24T11:25:03;1.10;;;1.10;;
7154;SDS011;3619;53.784;10.440;2023-04-24T11:27:38;1.10;;;1.10;;
7154;SDS011;3619;53.784;10.440;2023-04-24T11:30:08;1.13;;;1.13;;
7154;SDS011;3619;53.784;10.440;2023-04-24T11:32:37;1.20;;;1.20;;
7154;SDS011;3619;53.784;10.440;2023-04-24T11:35:06;1.20;;;1.20;;
7154;SDS011;3619;53.784;10.440;2023-04-24T11:37:35;2.40;;;2.03;;
7154;SDS011;3619;53.784;10.440;2023-04-24T11:40:03;1.20;;;1.20;;
7154;SDS011;3619;53.784;10.440;2023-04-24T11:42:35;1.10;;;1.10;;
7154;SDS011;3619;53.784;10.440;2023-04-24T11:45:06;1.10;;;1.10;;
7154;SDS011;3619;53.784;10.440;2023-04-24T11:47:36;1.20;;;1.20;;
7154;SDS011;3619;53.784;10.440;2023-04-24T11:50:04;1.40;;;1.40;;
7154;SDS011;3619;53.784;10.440;2023-04-24T11:52:33;1.30;;;1.30;;
7154;SDS011;3619;53.784;10.440;2023-04-24T11:55:03;1.40;;;1.40;;
7154;SDS011;3619;53.784;10.440;2023-04-24T11:57:32;1.20;;;1.20;;
7154;SDS011;3619;53.784;10.440;2023-04-24T12:00:01;1.27;;;1.27;;
7154;SDS011;3619;53.784;10.440;2023-04-24T12:02:31;1.20;;;1.20;;
7154;SDS011;3619;53.784;10.440;2023-04-24T12:04:58;1.30;;;1.30;;
7154;SDS011;3619;53.784;10.440;2023-04-24T12:07:28;1.40;;;1.40;;
7154;SDS011;3619;53.784;10.440;2023-04-24T12:09:55;1.10;;;1.10;;
7154;SDS011;3619;53.784;10.440;2023-04-24T12:12:25;1.23;;;1.23;;
7154;SDS011;3619;53.784;10.440;2023-04-24T12:14:53;1.10;;;1.10;;
7154;SDS011;3619;53.784;10.440;2023-04-24T12:17:26;1.20;;;1.20;;
7154;SDS011;3619;53.784;10.440;2023-04-24T12:19:58;1.27;;;1.27;;
7154;SDS011;3619;53.784;10.440;2023-04-24T12:22:27;1.30;;;1.30;;
7154;SDS011;3619;53.784;10.440;2023-04-24T12:25:01;1.13;;;1.13;;
7154;SDS011;3619;53.784;10.440;2023-04-24T12:27:30;1.30;;;1.30;;
7154;SDS011;3619;53.784;10.440;2023-04-24T12:29:58;1.20;;;1.20;;
7154;SDS011;3619;53.784;10.440;2023-04-24T12:32:26;1.30;;;1.30;;
7154;SDS011;3619;53.784;10.440;2023-04-24T12:34:54;1.40;;;1.40;;
7154;SDS011;3619;53.784;10.440;2023-04-24T12:37:23;1.20;;;1.20;;
7154;SDS011;3619;53.784;10.440;2023-04-24T12:40:04;1.10;;;1.10;;
7154;SDS011;3619;53.784;10.440;2023-04-24T12:42:33;1.80;;;1.70;;
7154;SDS011;3619;53.784;10.440;2023-04-24T12:45:02;1.20;;;1.20;;
7154;SDS011;3619;53.784;10.440;2023-04-24T12:47:30;1.00;;;1.00;;
7154;SDS011;3619;53.784;10.440;2023-04-24T12:49:58;1.17;;;1.17;;
7154;SDS011;3619;53.784;10.440;2023-04-24T12:52:26;0.90;;;0.90;;
7154;SDS011;3619;53.784;10.440;2023-04-24T12:54:55;1.20;;;1.20;;
7154;SDS011;3619;53.784;10.440;2023-04-24T12:57:24;1.10;;;1.10;;
7154;SDS011;3619;53.784;10.440;2023-04-24T12:59:53;1.30;;;1.30;;
7154;SDS011;3619;53.784;10.440;2023-04-24T13:02:20;1.10;;;1.10;;
7154;SDS011;3619;53.784;10.440;2023-04-24T13:04:47;1.20;;;1.20;;
7154;SDS011;3619;53.784;10.440;2023-04-24T13:07:15;1.30;;;1.30;;
7154;SDS011;3619;53.784;10.440;2023-04-24T13:09:44;1.00;;;1.00;;
7154;SDS011;3619;53.784;10.440;2023-04-24T13:12:13;1.07;;;1.07;;
7154;SDS011;3619;53.784;10.440;2023-04-24T13:14:40;1.23;;;1.23;;
7154;SDS011;3619;53.784;10.440;2023-04-24T13:17:07;1.03;;;1.03;;
7154;SDS011;3619;53.784;10.440;2023-04-24T13:19:36;1.30;;;1.30;;
7154;SDS011;3619;53.784;10.440;2023-04-24T13:22:04;1.20;;;1.20;;
7154;SDS011;3619;53.784;10.440;2023-04-24T13:24:31;1.20;;;1.20;;
7154;SDS011;3619;53.784;10.440;2023-04-24T13:27:00;1.20;;;1.20;;
7154;SDS011;3619;53.784;10.440;2023-04-24T13:29:27;1.17;;;1.17;;
7154;SDS011;3619;53.784;10.440;2023-04-24T13:31:54;1.13;;;1.13;;
7154;SDS011;3619;53.784;10.440;2023-04-24T13:34:21;1.17;;;1.17;;
7154;SDS011;3619;53.784;10.440;2023-04-24T13:36:49;1.20;;;1.20;;
7154;SDS011;3619;53.784;10.440;2023-04-24T13:39:16;1.33;;;1.33;;
7154;SDS011;3619;53.784;10.440;2023-04-24T13:41:43;1.40;;;1.40;;
7154;SDS011;3619;53.784;10.440;2023-04-24T13:44:11;1.97;;;1.87;;
7154;SDS011;3619;53.784;10.440;2023-04-24T13:46:38;1.50;;;1.50;;
7154;SDS011;3619;53.784;10.440;2023-04-24T13:49:06;1.50;;;1.50;;
7154;SDS011;3619;53.784;10.440;2023-04-24T13:51:33;1.30;;;1.30;;
7154;SDS011;3619;53.784;10.440;2023-04-24T13:53:59;1.20;;;1.20;;
7154;SDS011;3619;53.784;10.440;2023-04-24T13:56:26;1.37;;;1.37;;
7154;SDS011;3619;53.784;10.440;2023-04-24T13:58:53;1.40;;;1.40;;
7154;SDS011;3619;53.784;10.440;2023-04-24T14:01:22;1.40;;;1.40;;
7154;SDS011;3619;53.784;10.440;2023-04-24T14:03:49;1.50;;;1.50;;
7154;SDS011;3619;53.784;10.440;2023-04-24T14:06:17;1.37;;;1.37;;
7154;SDS011;3619;53.784;10.440;2023-04-24T14:08:44;1.30;;;1.30;;
7154;SDS011;3619;53.784;10.440;2023-04-24T14:11:11;1.70;;;1.70;;
7154;SDS011;3619;53.784;10.440;2023-04-24T14:13:38;1.40;;;1.40;;
7154;SDS011;3619;53.784;10.440;2023-04-24T14:16:06;1.30;;;1.30;;
7154;SDS011;3619;53.784;10.440;2023-04-24T14:18:34;1.50;;;1.50;;
7154;SDS011;3619;53.784;10.440;2023-04-24T14:21:01;1.53;;;1.53;;
7154;SDS011;3619;53.784;10.440;2023-04-24T14:23:28;1.50;;;1.50;;
7154;SDS011;3619;53.784;10.440;2023-04-24T14:25:56;1.70;;;1.70;;
7154;SDS011;3619;53.784;10.440;2023-04-24T14:28:23;1.40;;;1.40;;
7154;SDS011;3619;53.784;10.440;2023-04-24T14:30:51;1.57;;;1.57;;
7154;SDS011;3619;53.784;10.440;2023-04-24T14:33:18;1.37;;;1.37;;
7154;SDS011;3619;53.784;10.440;2023-04-24T14:35:46;1.43;;;1.43;;
7154;SDS011;3619;53.784;10.440;2023-04-24T14:38:14;1.40;;;1.40;;
7154;SDS011;3619;53.784;10.440;2023-04-24T14:40:41;1.40;;;1.40;;
7154;SDS011;3619;53.784;10.440;2023-04-24T14:43:08;1.30;;;1.30;;
7154;SDS011;3619;53.784;10.440;2023-04-24T14:45:34;1.50;;;1.50;;
7154;SDS011;3619;53.784;10.440;2023-04-24T14:48:03;1.50;;;1.50;;
7154;SDS011;3619;53.784;10.440;2023-04-24T14:50:29;1.60;;;1.60;;
7154;SDS011;3619;53.784;10.440;2023-04-24T14:52:58;1.50;;;1.50;;
7154;SDS011;3619;53.784;10.440;2023-04-24T14:55:26;1.57;;;1.57;;
7154;SDS011;3619;53.784;10.440;2023-04-24T14:57:53;1.40;;;1.40;;
7154;SDS011;3619;53.784;10.440;2023-04-24T15:00:21;1.30;;;1.30;;
7154;SDS011;3619;53.784;10.440;2023-04-24T15:02:49;1.30;;;1.30;;
7154;SDS011;3619;53.784;10.440;2023-04-24T15:05:15;1.50;;;1.50;;